Terminal Aerodrome Forecast
Issued by NWS Upton, NY

Home | Current Version | Previous Version | Text Only | Print | Product List | Glossary On
Versions: 1 2 3 4 5 6 7 8 9 10 11 12 13 14 15 16 17 18 19 20 21 22 23 24 25 26
000
FTUS41 KOKX 311400 AAA
TAFLGA
TAF AMD
KLGA 311432Z 3115/0112 23010KT P6SM BKN250
     FM311800 20011G19KT P6SM SCT050 BKN250
     FM010100 20009KT P6SM BKN250=

USA.gov is the U.S. government's official web portal to all federal, state and local government web resources and services.